Time;durP1;ratioP1;P1;durP2;ratioP2;P2;SDS_P1;SDS_P2;PMS_P1;PMS_P2;Temp;Humidity;BMP_temperature;BMP_pressure;BME280_temperature;BME280_humidity;BME280_pressure;Samples;Min_cycle;Max_cycle;Signal;HPM_P1;HPM_P2
2023/04/05 00:01:52;;;;;;;0.10;0.10;;;;;;;6.09;60.76;102638.59;5075162;28;20449;-82
2023/04/05 00:04:19;;;;;;;0.30;0.28;;;;;;;6.07;60.18;102635.03;5074522;28;20091;-81
2023/04/05 00:06:51;;;;;;;0.10;0.10;;;;;;;6.05;60.46;102638.47;5078393;28;20016;-80
2023/04/05 00:09:19;;;;;;;0.20;0.20;;;;;;;6.03;61.15;102632.25;5074539;28;20107;-81
2023/04/05 00:11:46;;;;;;;0.10;0.10;;;;;;;6.00;61.25;102633.06;5074336;28;20053;-80
2023/04/05 00:14:12;;;;;;;0.10;0.10;;;;;;;5.97;61.80;102632.97;5072793;28;20042;-80
2023/04/05 00:16:39;;;;;;;0.10;0.10;;;;;;;5.92;61.91;102640.72;5072444;28;20036;-82
2023/04/05 00:19:05;;;;;;;0.82;0.82;;;;;;;5.87;61.43;102633.53;5080652;28;20031;-82
2023/04/05 00:21:32;;;;;;;0.32;0.32;;;;;;;5.83;61.45;102629.91;5075726;28;20056;-81
2023/04/05 00:23:59;;;;;;;0.20;0.20;;;;;;;5.80;61.10;102624.59;5072618;28;20031;-80
2023/04/05 00:26:25;;;;;;;0.20;0.20;;;;;;;5.75;61.95;102624.44;5069775;28;20108;-78
2023/04/05 00:28:52;;;;;;;0.65;0.65;;;;;;;5.73;61.51;102631.44;5068597;28;20561;-80
2023/04/05 00:31:18;;;;;;;0.10;0.10;;;;;;;5.69;62.29;102626.91;5073804;28;20556;-79
2023/04/05 00:33:45;;;;;;;0.10;0.10;;;;;;;5.64;62.32;102620.63;5063481;28;20052;-80
2023/04/05 00:38:49;;;;;;;0.20;0.20;;;;;;;5.62;62.01;102622.31;5004511;28;20424;-81
2023/04/05 00:41:15;;;;;;;0.10;0.10;;;;;;;5.60;62.13;102621.41;4985551;28;20043;-83
2023/04/05 00:43:41;;;;;;;0.10;0.10;;;;;;;5.60;61.71;102616.13;4976697;28;20389;-81
2023/04/05 00:46:08;;;;;;;0.10;0.10;;;;;;;5.58;62.35;102608.22;4983913;28;20054;-83
2023/04/05 00:48:35;;;;;;;0.10;0.10;;;;;;;5.58;61.38;102617.81;4974037;28;20019;-79
2023/04/05 00:51:01;;;;;;;0.20;0.20;;;;;;;5.54;62.32;102610.69;4975622;28;20031;-82
2023/04/05 00:53:28;;;;;;;0.20;0.20;;;;;;;5.50;61.77;102604.44;4972785;28;20050;-82
2023/04/05 00:55:54;;;;;;;0.38;0.38;;;;;;;5.46;61.58;102606.09;4982212;28;20047;-82
2023/04/05 00:58:22;;;;;;;0.10;0.10;;;;;;;5.38;62.19;102602.34;4976746;28;20065;-80
2023/04/05 01:01:12;;;;;;;0.20;0.20;;;;;;;5.06;63.00;102602.25;4972329;28;20038;-78
2023/04/05 01:03:43;;;;;;;0.20;0.20;;;;;;;4.96;63.55;102605.44;4970974;28;20031;-79
2023/04/05 01:06:22;;;;;;;0.10;0.10;;;;;;;4.93;63.94;102600.09;4981100;28;20079;-80
2023/04/05 01:09:14;;;;;;;0.10;0.10;;;;;;;4.88;64.35;102602.56;4973396;28;20102;-81
2023/04/05 01:11:44;;;;;;;0.20;0.20;;;;;;;4.80;63.43;102604.94;4960255;28;20070;-79
2023/04/05 01:14:10;;;;;;;0.10;0.10;;;;;;;4.75;64.51;102596.03;4980679;28;20030;-78
2023/04/05 01:16:36;;;;;;;0.10;0.10;;;;;;;4.70;64.05;102592.38;4993284;28;20042;-77
2023/04/05 01:19:03;;;;;;;0.10;0.10;;;;;;;4.65;64.88;102591.34;4987559;28;20031;-81
2023/04/05 01:24:45;;;;;;;0.10;0.10;;;;;;;4.59;63.67;102580.63;5104068;27;20439;-80
2023/04/05 01:27:18;;;;;;;0.10;0.10;;;;;;;4.54;64.21;102583.97;5082486;28;20028;-82
2023/04/05 01:29:54;;;;;;;0.10;0.10;;;;;;;4.51;64.50;102576.00;5072952;28;20119;-82
2023/04/05 01:35:29;;;;;;;0.20;0.20;;;;;;;4.46;63.90;102574.06;5074900;27;20756;-83
2023/04/05 01:38:01;;;;;;;0.47;0.47;;;;;;;4.40;64.29;102565.97;5063355;28;20399;-81
2023/04/05 01:40:30;;;;;;;0.20;0.20;;;;;;;4.36;64.57;102571.16;5064243;28;20486;-80
2023/04/05 01:42:56;;;;;;;0.20;0.20;;;;;;;4.34;65.09;102575.44;5070756;28;20033;-81
2023/04/05 01:45:22;;;;;;;0.20;0.20;;;;;;;4.33;65.48;102575.41;5066865;28;20025;-81
2023/04/05 01:47:48;;;;;;;0.10;0.10;;;;;;;4.30;65.55;102570.03;5068873;28;20035;-82
2023/04/05 01:50:14;;;;;;;0.10;0.10;;;;;;;4.26;66.32;102568.16;5074408;28;20032;-82
2023/04/05 01:52:40;;;;;;;0.20;0.20;;;;;;;4.21;65.22;102570.59;5066623;28;20090;-82
2023/04/05 01:55:07;;;;;;;0.20;0.20;;;;;;;4.53;64.40;102569.06;5063693;28;20111;-82
2023/04/05 01:57:33;;;;;;;0.10;0.10;;;;;;;4.46;64.22;102564.47;5070249;28;20029;-82
2023/04/05 02:00:00;;;;;;;0.10;0.10;;;;;;;4.42;64.82;102559.94;5070889;28;20045;-82
2023/04/05 02:02:26;;;;;;;0.10;0.10;;;;;;;4.16;65.05;102556.44;5067470;28;20482;-82
2023/04/05 02:04:52;;;;;;;0.10;0.10;;;;;;;4.08;65.31;102556.19;5071630;28;20040;-82
2023/04/05 02:07:18;;;;;;;0.20;0.20;;;;;;;4.05;64.65;102556.09;5063839;28;20116;-82
2023/04/05 02:09:45;;;;;;;0.10;0.10;;;;;;;4.02;64.68;102556.84;5066279;28;20017;-81
2023/04/05 02:12:11;;;;;;;0.20;0.20;;;;;;;4.00;64.77;102555.03;5070197;28;20470;-80
2023/04/05 02:14:37;;;;;;;0.10;0.10;;;;;;;3.99;64.26;102553.25;5063123;28;20099;-80
2023/04/05 02:17:03;;;;;;;0.20;0.20;;;;;;;3.96;65.02;102545.28;5061490;28;20041;-81
2023/04/05 02:19:36;;;;;;;0.22;0.22;;;;;;;3.92;65.52;102546.91;5061973;28;20037;-81
2023/04/05 02:22:02;;;;;;;0.17;0.17;;;;;;;3.88;65.24;102543.28;5073182;28;20044;-81
2023/04/05 02:24:28;;;;;;;0.10;0.10;;;;;;;4.17;64.13;102538.13;5061433;28;20051;-81
2023/04/05 02:26:55;;;;;;;0.10;0.10;;;;;;;4.23;63.52;102539.19;5059877;28;20029;-81
2023/04/05 02:29:21;;;;;;;1.58;1.58;;;;;;;4.27;62.92;102533.22;5065288;28;20049;-79
2023/04/05 02:31:47;;;;;;;0.10;0.10;;;;;;;4.27;62.66;102533.22;5066898;28;20045;-79
2023/04/05 02:34:13;;;;;;;1.25;0.38;;;;;;;4.25;63.58;102529.63;5061295;28;20143;-81
2023/04/05 02:36:41;;;;;;;0.20;0.20;;;;;;;4.24;63.02;102522.59;5066608;28;20137;-81
2023/04/05 02:39:07;;;;;;;0.10;0.10;;;;;;;4.17;63.72;102522.38;5064223;28;20088;-81
2023/04/05 02:41:34;;;;;;;0.10;0.10;;;;;;;4.14;62.86;102522.31;5064677;28;20390;-82
2023/04/05 02:44:00;;;;;;;0.20;0.20;;;;;;;4.11;62.93;102516.97;5061351;28;20039;-80
2023/04/05 02:46:26;;;;;;;0.20;0.20;;;;;;;4.10;62.66;102520.44;5051655;28;20028;-80
2023/04/05 02:48:53;;;;;;;0.10;0.10;;;;;;;4.08;62.39;102516.84;5048669;28;20033;-80
2023/04/05 02:51:19;;;;;;;0.17;0.17;;;;;;;4.05;62.77;102522.00;5063422;28;20041;-79
2023/04/05 02:53:45;;;;;;;0.20;0.20;;;;;;;4.05;62.77;102519.38;5054240;28;20040;-78
2023/04/05 02:56:12;;;;;;;0.20;0.20;;;;;;;4.01;62.59;102515.75;5057557;28;20037;-80
2023/04/05 02:58:39;;;;;;;0.20;0.20;;;;;;;3.97;63.24;102507.72;5058526;28;20025;-77
2023/04/05 03:01:06;;;;;;;0.20;0.20;;;;;;;3.92;62.94;102518.03;5054253;28;20029;-80
2023/04/05 03:03:33;;;;;;;0.57;0.57;;;;;;;3.88;63.60;102503.94;5054241;28;20036;-80
2023/04/05 03:06:08;;;;;;;0.52;0.52;;;;;;;3.87;63.72;102512.63;5064595;28;20045;-79
2023/04/05 03:08:37;;;;;;;0.10;0.10;;;;;;;3.76;63.92;102503.50;5051090;28;20107;-79
2023/04/05 03:11:05;;;;;;;0.10;0.10;;;;;;;3.76;63.21;102503.50;5062399;28;20021;-81
2023/04/05 03:13:31;;;;;;;0.20;0.20;;;;;;;3.80;62.97;102508.03;5055179;28;20387;-79
2023/04/05 03:15:57;;;;;;;0.20;0.20;;;;;;;3.80;62.97;102499.25;5057835;28;20028;-80
2023/04/05 03:18:25;;;;;;;0.82;0.82;;;;;;;3.77;63.35;102510.53;5044592;28;20083;-81
2023/04/05 03:20:56;;;;;;;0.10;0.10;;;;;;;3.73;62.83;102499.06;5051482;28;20037;-80
2023/04/05 03:23:27;;;;;;;0.20;0.20;;;;;;;3.73;62.62;102492.94;5044818;28;20052;-81
2023/04/05 03:25:57;;;;;;;0.10;0.10;;;;;;;3.71;63.38;102502.47;5048268;28;20506;-79
2023/04/05 03:28:24;;;;;;;0.20;0.20;;;;;;;3.69;63.50;102491.06;5056948;28;20032;-80
2023/04/05 03:30:50;;;;;;;0.20;0.20;;;;;;;3.66;63.21;102501.41;5049473;28;20128;-81
2023/04/05 03:33:17;;;;;;;0.20;0.20;;;;;;;3.63;63.17;102501.31;5046557;28;20039;-81
2023/04/05 03:35:44;;;;;;;0.20;0.20;;;;;;;3.56;63.65;102490.63;5055774;28;20029;-80
2023/04/05 03:38:10;;;;;;;0.20;0.20;;;;;;;3.55;63.46;102495.78;5057801;28;20020;-81
2023/04/05 03:40:37;;;;;;;0.22;0.22;;;;;;;3.54;63.73;102500.13;5041595;28;20022;-81
2023/04/05 03:43:03;;;;;;;0.20;0.20;;;;;;;3.55;64.51;102498.41;5053619;28;20021;-80
2023/04/05 03:45:29;;;;;;;0.20;0.20;;;;;;;3.53;66.30;102495.72;5051751;28;20498;-79
2023/04/05 03:47:57;;;;;;;0.20;0.20;;;;;;;3.51;65.33;102500.00;5053728;28;20036;-81
2023/04/05 03:50:25;;;;;;;4.57;1.65;;;;;;;3.54;65.00;102505.38;5054418;28;20692;-82
2023/04/05 03:52:51;;;;;;;0.20;0.20;;;;;;;3.53;64.71;102505.34;5055540;28;20146;-81
2023/04/05 03:55:18;;;;;;;0.20;0.20;;;;;;;3.54;64.20;102505.38;5055595;28;20031;-82
2023/04/05 03:57:44;;;;;;;0.38;0.32;;;;;;;3.53;65.13;102500.97;5044510;28;20084;-82
2023/04/05 04:00:13;;;;;;;0.85;0.85;;;;;;;3.53;65.01;102500.97;5050276;28;20025;-82
2023/04/05 04:05:20;;;;;;;0.30;0.30;;;;;;;3.49;64.87;102498.19;5083012;27;20403;-78
2023/04/05 04:07:47;;;;;;;0.20;0.20;;;;;;;3.46;64.45;102495.47;5033787;28;20640;-80
2023/04/05 04:10:16;;;;;;;0.15;0.15;;;;;;;3.42;64.24;102494.47;5039438;28;20033;-82
2023/04/05 04:12:43;;;;;;;0.20;0.20;;;;;;;3.39;64.29;102499.59;5041274;28;20044;-79
2023/04/05 04:15:10;;;;;;;0.22;0.22;;;;;;;3.37;63.85;102493.41;5042099;28;20034;-80
2023/04/05 04:17:37;;;;;;;0.20;0.20;;;;;;;3.36;64.28;102502.09;5033740;28;20084;-81
2023/04/05 04:20:09;;;;;;;0.20;0.20;;;;;;;3.36;63.44;102502.09;5037773;28;20599;-82
2023/04/05 04:22:39;;;;;;;0.10;0.10;;;;;;;3.34;63.77;102498.53;5039580;28;20162;-83
2023/04/05 04:25:09;;;;;;;0.20;0.20;;;;;;;3.34;63.77;102501.13;5036961;28;20029;-84
2023/04/05 04:27:40;;;;;;;0.60;0.60;;;;;;;3.32;63.79;102497.59;5040463;28;20026;-81
2023/04/05 04:30:09;;;;;;;0.40;0.40;;;;;;;3.29;63.52;102494.84;5046976;28;20094;-80
2023/04/05 04:32:52;;;;;;;0.20;0.20;;;;;;;3.29;63.19;102494.84;5040022;28;20037;-83
2023/04/05 04:35:23;;;;;;;0.20;0.20;;;;;;;3.24;63.58;102492.06;5042520;28;20022;-80
2023/04/05 04:40:40;;;;;;;0.10;0.10;;;;;;;3.15;64.29;102487.34;5059655;28;20419;-80
2023/04/05 04:43:13;;;;;;;0.52;0.52;;;;;;;3.20;63.35;102496.31;5044580;28;20064;-78
2023/04/05 04:45:40;;;;;;;0.20;0.20;;;;;;;3.18;63.39;102492.72;5036669;28;20048;-80
2023/04/05 04:48:07;;;;;;;0.20;0.20;;;;;;;3.17;63.31;102496.19;5035650;28;20155;-79
2023/04/05 04:50:34;;;;;;;0.20;0.20;;;;;;;3.15;63.62;102487.34;5040156;28;20021;-80
2023/04/05 04:53:00;;;;;;;0.20;0.20;;;;;;;3.13;62.88;102485.53;5037452;28;20128;-80
2023/04/05 04:55:28;;;;;;;2.28;0.75;;;;;;;3.10;63.23;102483.69;5037645;28;20025;-81
2023/04/05 04:57:55;;;;;;;0.10;0.10;;;;;;;3.10;63.33;102482.81;5031841;28;20059;-81
2023/04/05 05:00:22;;;;;;;0.17;0.17;;;;;;;3.10;63.29;102486.28;5032006;28;20022;-81
2023/04/05 05:02:49;;;;;;;0.20;0.20;;;;;;;3.13;63.79;102486.44;5043197;28;20033;-79
2023/04/05 05:05:15;;;;;;;0.10;0.10;;;;;;;3.13;63.27;102486.44;5038874;28;20025;-81
2023/04/05 05:07:41;;;;;;;0.20;0.20;;;;;;;3.13;63.40;102490.75;5039684;28;20044;-79
2023/04/05 05:10:10;;;;;;;0.20;0.20;;;;;;;3.13;63.43;102493.38;5039257;28;20089;-80
2023/04/05 05:12:37;;;;;;;0.10;0.10;;;;;;;3.10;63.83;102488.91;5036657;28;20036;-81
2023/04/05 05:15:03;;;;;;;0.20;0.20;;;;;;;3.10;64.47;102494.16;5039026;28;20026;-79
2023/04/05 05:17:31;;;;;;;0.20;0.20;;;;;;;3.08;64.55;102494.09;5035021;28;20487;-80
2023/04/05 05:19:59;;;;;;;1.52;1.48;;;;;;;3.09;64.49;102492.41;5039989;28;20044;-79
2023/04/05 05:22:26;;;;;;;1.58;0.85;;;;;;;3.10;64.92;102494.16;5038951;28;20033;-80
2023/04/05 05:24:52;;;;;;;0.52;0.52;;;;;;;3.10;64.47;102494.16;5032803;28;20059;-81
2023/04/05 05:27:20;;;;;;;0.10;0.10;;;;;;;3.11;64.40;102490.72;5036834;28;20038;-80
2023/04/05 05:29:47;;;;;;;0.20;0.20;;;;;;;3.12;64.02;102497.72;5030181;28;20025;-80
2023/04/05 05:32:14;;;;;;;0.38;0.38;;;;;;;3.14;64.78;102496.06;5045240;28;20053;-81
2023/04/05 05:34:43;;;;;;;0.10;0.10;;;;;;;3.15;64.10;102502.19;5034456;28;20749;-82
2023/04/05 05:37:10;;;;;;;0.10;0.10;;;;;;;3.17;63.81;102500.53;5047658;28;20033;-80
2023/04/05 05:39:37;;;;;;;0.20;0.20;;;;;;;3.19;64.02;102497.13;5056663;28;20056;-79
2023/04/05 05:42:03;;;;;;;0.25;0.25;;;;;;;3.22;63.97;102493.75;5052396;28;20128;-82
2023/04/05 05:44:29;;;;;;;0.20;0.20;;;;;;;3.24;64.63;102498.19;5044953;28;20061;-80
2023/04/05 05:46:56;;;;;;;0.10;0.10;;;;;;;3.26;64.49;102498.25;5048792;28;20064;-82
2023/04/05 05:49:22;;;;;;;0.20;0.20;;;;;;;3.29;64.77;102485.28;5048516;28;20152;-84
2023/04/05 05:51:48;;;;;;;0.20;0.20;;;;;;;3.33;64.54;102496.75;5027034;28;20089;-82
2023/04/05 05:54:15;;;;;;;0.20;0.20;;;;;;;3.34;64.63;102498.53;5029021;28;20037;-84
2023/04/05 05:56:41;;;;;;;0.20;0.20;;;;;;;3.37;64.40;102496.91;5025893;28;20156;-85
2023/04/05 05:59:07;;;;;;;0.20;0.20;;;;;;;3.42;65.02;102493.59;5023490;28;20056;-86
2023/04/05 06:01:37;;;;;;;0.10;0.10;;;;;;;3.46;64.94;102493.72;5022876;28;20032;-84
2023/04/05 06:04:03;;;;;;;0.20;0.20;;;;;;;3.51;65.32;102499.13;5027923;28;20036;-83
2023/04/05 06:06:32;;;;;;;0.20;0.20;;;;;;;3.55;65.11;102493.16;5026636;28;20030;-84
2023/04/05 06:08:58;;;;;;;0.20;0.20;;;;;;;3.59;64.40;102495.06;5035054;28;20018;-86
2023/04/05 06:11:25;;;;;;;1.33;1.27;;;;;;;3.62;64.00;102500.41;5026887;28;20042;-86
2023/04/05 06:13:53;;;;;;;0.10;0.10;;;;;;;3.65;63.68;102494.38;5037865;28;20109;-86
2023/04/05 06:16:20;;;;;;;0.20;0.20;;;;;;;3.69;64.69;102493.66;5020297;28;20042;-86
2023/04/05 06:18:46;;;;;;;0.20;0.20;;;;;;;3.74;64.50;102497.34;5011462;28;20069;-86
2023/04/05 06:21:12;;;;;;;0.20;0.20;;;;;;;3.80;64.32;102502.81;5016545;28;20483;-85
2023/04/05 06:23:42;;;;;;;0.20;0.20;;;;;;;3.86;63.68;102503.00;5039217;28;20187;-86
2023/04/05 06:26:17;;;;;;;0.20;0.20;;;;;;;3.92;63.43;102502.31;5015531;28;20033;-86
2023/04/05 06:28:46;;;;;;;0.20;0.20;;;;;;;3.98;63.50;102489.41;5030532;28;20018;-84
2023/04/05 06:31:14;;;;;;;0.20;0.20;;;;;;;4.06;63.67;102500.16;5017419;28;20486;-84
2023/04/05 06:33:40;;;;;;;0.35;0.35;;;;;;;4.15;63.44;102503.09;5037047;28;20118;-84
2023/04/05 06:36:07;;;;;;;0.15;0.15;;;;;;;4.20;63.53;102504.13;5036212;28;20543;-84
2023/04/05 06:38:33;;;;;;;0.20;0.20;;;;;;;4.27;63.27;102499.09;5034743;28;20036;-86
2023/04/05 06:40:59;;;;;;;0.10;0.10;;;;;;;4.34;62.95;102504.59;5021135;28;20038;-84
2023/04/05 06:43:25;;;;;;;0.10;0.10;;;;;;;4.40;62.76;102498.66;5021543;28;20037;-83
2023/04/05 06:45:54;;;;;;;1.27;1.27;;;;;;;4.44;63.30;102499.66;5025576;28;20060;-85
2023/04/05 06:48:20;;;;;;;0.20;0.20;;;;;;;4.49;63.06;102498.06;5019434;28;20033;-84
2023/04/05 06:50:46;;;;;;;0.77;0.77;;;;;;;4.55;63.22;102498.25;5017718;28;20022;-84
2023/04/05 06:53:17;;;;;;;0.20;0.20;;;;;;;4.62;63.25;102497.63;5020687;28;20038;-83
2023/04/05 06:55:49;;;;;;;0.10;0.10;;;;;;;4.73;62.84;102497.94;5030005;28;20036;-84
2023/04/05 06:58:15;;;;;;;0.77;0.73;;;;;;;4.78;62.25;102496.31;5026966;28;20025;-84
2023/04/05 07:00:41;;;;;;;0.20;0.20;;;;;;;4.84;61.94;102491.25;5027006;28;20117;-84
2023/04/05 07:03:07;;;;;;;0.60;0.60;;;;;;;4.92;61.86;102493.22;5021449;28;20057;-84
2023/04/05 07:05:34;;;;;;;0.10;0.10;;;;;;;5.00;61.48;102497.00;5042033;28;20041;-82
2023/04/05 07:08:00;;;;;;;10.77;1.17;;;;;;;5.07;61.46;102498.97;5024575;28;20046;-84
2023/04/05 07:10:26;;;;;;;0.17;0.17;;;;;;;5.13;61.46;102490.34;5029912;28;20097;-83
2023/04/05 07:12:52;;;;;;;0.20;0.20;;;;;;;5.20;61.46;102489.69;5023628;28;20033;-81
2023/04/05 07:15:18;;;;;;;0.43;0.43;;;;;;;5.28;61.24;102485.56;5027030;28;20113;-82
2023/04/05 07:17:45;;;;;;;0.20;0.20;;;;;;;5.36;61.16;102485.75;5021943;28;20235;-82
2023/04/05 07:20:11;;;;;;;0.40;0.40;;;;;;;5.43;60.95;102484.19;5016756;28;20029;-83
2023/04/05 07:22:37;;;;;;;0.10;0.10;;;;;;;5.50;60.70;102479.13;5027260;28;20077;-83
2023/04/05 07:25:04;;;;;;;0.15;0.15;;;;;;;5.57;60.74;102481.94;5028691;28;20037;-81
2023/04/05 07:27:30;;;;;;;0.10;0.10;;;;;;;5.66;60.55;102479.56;5024544;28;20034;-84
2023/04/05 07:29:56;;;;;;;0.13;0.13;;;;;;;5.73;60.54;102476.25;5026730;28;20053;-83
2023/04/05 07:32:23;;;;;;;0.10;0.10;;;;;;;5.81;60.42;102469.44;5016689;28;20410;-81
2023/04/05 07:34:49;;;;;;;0.10;0.10;;;;;;;5.88;60.29;102474.84;5025394;28;20088;-82
2023/04/05 07:37:15;;;;;;;0.10;0.10;;;;;;;5.95;59.68;102468.91;5023384;28;20025;-81
2023/04/05 07:39:41;;;;;;;0.10;0.10;;;;;;;6.00;59.52;102469.94;5020216;28;20030;-84
2023/04/05 07:42:07;;;;;;;0.10;0.10;;;;;;;6.06;59.13;102474.47;5014292;28;20038;-85
2023/04/05 07:44:33;;;;;;;0.30;0.30;;;;;;;6.17;59.23;102472.09;5017229;28;20029;-85
2023/04/05 07:46:59;;;;;;;0.20;0.20;;;;;;;6.29;59.06;102472.38;5019815;28;20107;-83
2023/04/05 07:49:26;;;;;;;1.65;0.60;;;;;;;6.39;58.75;102470.88;5034110;28;20491;-83
2023/04/05 07:51:56;;;;;;;0.17;0.17;;;;;;;6.50;58.27;102465.88;5016094;28;20551;-83
2023/04/05 07:54:22;;;;;;;0.10;0.10;;;;;;;6.59;58.75;102468.69;5016931;28;20423;-82
2023/04/05 07:56:49;;;;;;;0.10;0.10;;;;;;;6.68;58.53;102463.66;5020342;28;20088;-81
2023/04/05 07:59:15;;;;;;;0.45;0.45;;;;;;;6.77;58.40;102463.84;5027995;28;20037;-81
2023/04/05 08:01:41;;;;;;;0.10;0.10;;;;;;;6.85;57.51;102464.00;5021073;28;20075;-80
2023/04/05 08:04:08;;;;;;;1.30;0.70;;;;;;;6.97;57.61;102473.91;5021966;28;20029;-80
2023/04/05 08:06:34;;;;;;;0.20;0.20;;;;;;;7.07;58.02;102465.34;5019863;28;20487;-82
2023/04/05 08:09:02;;;;;;;0.10;0.10;;;;;;;7.18;57.87;102456.75;5018364;28;20077;-81
2023/04/05 08:11:28;;;;;;;0.17;0.17;;;;;;;7.30;57.51;102462.28;5014157;28;20034;-81
2023/04/05 08:13:54;;;;;;;0.10;0.10;;;;;;;7.39;56.51;102462.47;5017650;28;20033;-82
2023/04/05 08:16:20;;;;;;;0.45;0.45;;;;;;;7.52;56.88;102465.34;5020338;28;20033;-82
2023/04/05 08:18:47;;;;;;;0.10;0.10;;;;;;;7.63;56.46;102458.50;5019065;28;20022;-82
2023/04/05 08:21:13;;;;;;;0.10;0.10;;;;;;;7.72;55.55;102450.75;5022628;28;20042;-81
2023/04/05 08:23:39;;;;;;;0.50;0.50;;;;;;;7.84;55.46;102450.09;5032648;28;20072;-83
2023/04/05 08:26:06;;;;;;;0.10;0.10;;;;;;;7.96;55.15;102452.03;5024064;28;20053;-81
2023/04/05 08:28:33;;;;;;;0.10;0.10;;;;;;;8.03;53.67;102451.28;5037047;28;20080;-82
2023/04/05 08:31:02;;;;;;;0.50;0.50;;;;;;;8.21;56.39;102450.69;5013830;28;20110;-86
2023/04/05 08:33:29;;;;;;;0.10;0.10;;;;;;;8.39;56.41;102444.78;5024005;28;20500;-85
2023/04/05 08:35:56;;;;;;;0.20;0.20;;;;;;;8.67;52.40;102441.69;5012239;28;20097;-82
2023/04/05 08:38:23;;;;;;;0.10;0.10;;;;;;;8.84;53.15;102447.22;5020584;28;20072;-81
2023/04/05 08:40:50;;;;;;;0.32;0.32;;;;;;;8.93;51.26;102444.66;5027644;28;20042;-82
2023/04/05 08:43:42;;;;;;;1.25;1.25;;;;;;;9.11;51.44;102440.47;5032681;28;20018;-83
2023/04/05 08:46:12;;;;;;;0.35;0.35;;;;;;;9.10;50.27;102436.06;5021675;28;20037;-84
2023/04/05 08:48:40;;;;;;;0.10;0.10;;;;;;;9.22;50.80;102438.84;5017756;28;20040;-83
2023/04/05 08:51:08;;;;;;;0.10;0.10;;;;;;;9.34;51.65;102433.69;5015539;28;20030;-82
2023/04/05 08:53:34;;;;;;;0.40;0.40;;;;;;;9.49;50.89;102427.66;5014950;28;20036;-83
2023/04/05 08:56:01;;;;;;;0.20;0.20;;;;;;;9.60;50.70;102430.44;5013093;28;20056;-83
2023/04/05 08:58:30;;;;;;;0.20;0.20;;;;;;;9.74;48.74;102432.31;5016121;28;20503;-83
2023/04/05 09:00:57;;;;;;;0.10;0.10;;;;;;;9.84;49.66;102426.22;5019116;28;20068;-81
2023/04/05 09:03:28;;;;;;;0.10;0.10;;;;;;;9.97;49.26;102430.75;5029481;28;20038;-83
2023/04/05 09:05:57;;;;;;;0.10;0.10;;;;;;;10.13;47.80;102428.22;5015270;28;20140;-83
2023/04/05 09:08:23;;;;;;;0.77;0.73;;;;;;;10.28;48.56;102433.63;5010274;28;20120;-84
2023/04/05 09:10:50;;;;;;;0.10;0.10;;;;;;;10.41;44.82;102425.81;5019407;28;20034;-83
2023/04/05 09:13:17;;;;;;;0.38;0.38;;;;;;;10.50;45.64;102425.84;5020837;28;20104;-82
2023/04/05 09:15:43;;;;;;;0.10;0.10;;;;;;;10.62;45.05;102425.03;5024387;28;20038;-83
2023/04/05 09:18:09;;;;;;;0.10;0.10;;;;;;;10.76;47.55;102428.63;5019348;28;20384;-83
2023/04/05 09:20:35;;;;;;;0.63;0.45;;;;;;;10.85;43.56;102427.78;5020705;28;20026;-82
2023/04/05 09:23:02;;;;;;;0.10;0.10;;;;;;;10.93;42.21;102425.16;5017504;28;20038;-83
2023/04/05 09:25:31;;;;;;;2.30;1.17;;;;;;;11.04;39.59;102425.22;5014910;28;20085;-80
2023/04/05 09:28:04;;;;;;;0.10;0.10;;;;;;;11.16;41.49;102425.25;5015316;28;20040;-82
2023/04/05 09:30:31;;;;;;;0.30;0.30;;;;;;;11.21;38.23;102420.84;5014660;28;20045;-80
2023/04/05 09:32:58;;;;;;;0.10;0.10;;;;;;;11.32;42.23;102413.78;5037626;28;20029;-81
2023/04/05 09:35:27;;;;;;;1.10;1.10;;;;;;;11.47;40.72;102422.66;5021147;28;20034;-77
2023/04/05 09:37:58;;;;;;;0.10;0.10;;;;;;;11.61;39.86;102420.03;5014964;28;20930;-85
2023/04/05 09:40:39;;;;;;;0.15;0.15;;;;;;;11.70;39.34;102414.75;5010342;28;20026;-81
2023/04/05 09:43:05;;;;;;;0.10;0.10;;;;;;;11.79;38.92;102409.41;5012568;28;20030;-83
2023/04/05 09:45:40;;;;;;;0.20;0.20;;;;;;;11.91;39.45;102403.22;5016229;28;20026;-83
2023/04/05 09:48:07;;;;;;;0.10;0.10;;;;;;;11.98;38.45;102412.97;5013883;28;20060;-82
2023/04/05 09:50:33;;;;;;;0.45;0.45;;;;;;;12.11;38.14;102410.31;5012466;28;20117;-81
2023/04/05 09:53:08;;;;;;;4.05;1.27;;;;;;;12.31;40.10;102412.94;5022384;28;20022;-80
2023/04/05 09:55:34;;;;;;;0.10;0.10;;;;;;;12.44;37.64;102403.16;5014068;28;20036;-83
2023/04/05 09:58:01;;;;;;;0.10;0.10;;;;;;;12.53;36.98;102403.13;5016868;28;20018;-82
2023/04/05 10:00:30;;;;;;;0.47;0.47;;;;;;;12.65;37.52;102403.97;5020533;28;20039;-84
2023/04/05 10:02:56;;;;;;;0.10;0.10;;;;;;;12.67;37.57;102404.88;5014772;28;20026;-81
2023/04/05 10:05:27;;;;;;;0.10;0.10;;;;;;;12.69;37.20;102398.66;5021411;28;20085;-81
2023/04/05 10:07:55;;;;;;;0.10;0.10;;;;;;;12.69;36.24;102393.31;5021627;28;20034;-80
2023/04/05 10:10:22;;;;;;;0.10;0.10;;;;;;;12.76;37.12;102388.84;5021159;28;20034;-81
2023/04/05 10:12:49;;;;;;;0.13;0.13;;;;;;;12.82;37.68;102388.81;5021690;28;20036;-83
2023/04/05 10:15:17;;;;;;;0.10;0.10;;;;;;;12.89;35.60;102379.94;5017559;28;20550;-84
2023/04/05 10:17:48;;;;;;;0.10;0.10;;;;;;;12.99;37.17;102379.91;5019747;28;20470;-84
2023/04/05 10:20:15;;;;;;;0.10;0.10;;;;;;;13.13;37.59;102375.38;5015514;28;20113;-83
2023/04/05 10:23:05;;;;;;;0.10;0.10;;;;;;;13.31;35.96;102376.13;5018049;28;20030;-80
2023/04/05 10:25:53;;;;;;;0.85;0.85;;;;;;;13.43;36.84;102376.09;5024859;28;20030;-81
2023/04/05 10:28:25;;;;;;;0.10;0.10;;;;;;;13.47;35.56;102376.94;5035766;28;20394;-83
2023/04/05 10:30:57;;;;;;;0.20;0.20;;;;;;;13.53;33.91;102368.91;5020563;28;20034;-83
2023/04/05 10:33:36;;;;;;;0.63;0.63;;;;;;;13.64;34.25;102374.16;5022731;28;20033;-82
2023/04/05 10:36:11;;;;;;;0.10;0.10;;;;;;;13.66;33.77;102383.91;5022987;28;20036;-83
2023/04/05 10:39:11;;;;;;;0.30;0.30;;;;;;;13.68;35.53;102370.56;5022343;28;20066;-80
2023/04/05 10:41:46;;;;;;;0.75;0.75;;;;;;;13.72;33.77;102370.53;5002650;28;20475;-83
2023/04/05 10:44:18;;;;;;;0.52;0.35;;;;;;;13.73;34.99;102374.06;5017077;28;20026;-83
2023/04/05 10:46:45;;;;;;;0.10;0.10;;;;;;;13.91;35.41;102365.91;5019376;28;20037;-83
2023/04/05 10:49:15;;;;;;;2.38;1.45;;;;;;;14.10;34.20;102373.72;5019010;28;20018;-83
2023/04/05 10:51:42;;;;;;;0.20;0.20;;;;;;;14.15;34.82;102366.56;5026534;28;20025;-86
2023/04/05 10:54:13;;;;;;;0.10;0.10;;;;;;;14.14;32.53;102370.13;5016374;28;20060;-84
2023/04/05 10:56:40;;;;;;;0.10;0.10;;;;;;;14.17;30.95;102364.78;5015687;28;20117;-83
2023/04/05 10:59:07;;;;;;;0.25;0.25;;;;;;;14.16;34.47;102362.13;5013456;28;20487;-81
2023/04/05 11:01:34;;;;;;;0.82;0.82;;;;;;;14.15;32.83;102355.91;5009602;28;20530;-81
2023/04/05 11:04:16;;;;;;;0.05;0.05;;;;;;;14.33;33.66;102349.50;5025425;28;20038;-82
2023/04/05 11:06:46;;;;;;;0.70;0.70;;;;;;;14.33;33.41;102344.16;5028897;28;20033;-83
2023/04/05 11:09:20;;;;;;;0.68;0.68;;;;;;;14.36;34.08;102344.13;5024611;28;20025;-81
2023/04/05 11:11:48;;;;;;;0.30;0.30;;;;;;;14.46;33.94;102349.34;5027019;28;20045;-80
2023/04/05 11:14:22;;;;;;;0.30;0.30;;;;;;;14.60;33.77;102349.19;5035247;28;20029;-84
2023/04/05 11:16:54;;;;;;;0.13;0.13;;;;;;;14.68;34.06;102344.69;5018526;28;20040;-83
2023/04/05 11:19:40;;;;;;;0.80;0.80;;;;;;;14.72;31.09;102336.59;5019363;28;20055;-84
2023/04/05 11:22:26;;;;;;;0.20;0.20;;;;;;;14.86;32.58;102333.72;5015289;28;20053;-84
2023/04/05 11:24:52;;;;;;;0.10;0.10;;;;;;;14.74;32.07;102333.88;5016287;28;20038;-82
2023/04/05 11:27:26;;;;;;;0.25;0.25;;;;;;;14.73;29.96;102340.16;5016662;28;20061;-83
2023/04/05 11:29:53;;;;;;;0.35;0.35;;;;;;;14.68;32.01;102329.53;5010340;28;20018;-84
2023/04/05 11:32:20;;;;;;;1.58;1.50;;;;;;;14.74;33.44;102323.22;5011573;28;20034;-84
2023/04/05 11:35:22;;;;;;;0.10;0.10;;;;;;;15.04;32.36;102327.25;5024125;28;20063;-84
2023/04/05 11:38:00;;;;;;;0.28;0.28;;;;;;;15.20;33.01;102322.56;4991102;28;20042;-85
2023/04/05 11:40:31;;;;;;;0.10;0.10;;;;;;;15.27;30.95;102319.78;5022784;28;20060;-84
2023/04/05 11:43:09;;;;;;;0.10;0.10;;;;;;;15.35;31.24;102312.53;5011299;28;20534;-83
2023/04/05 11:45:37;;;;;;;0.52;0.52;;;;;;;15.34;31.01;102310.78;5027296;28;20045;-83
2023/04/05 11:48:11;;;;;;;0.30;0.30;;;;;;;15.43;32.28;102313.28;5003739;28;20037;-83
2023/04/05 11:50:40;;;;;;;0.77;0.68;;;;;;;15.44;30.07;102306.16;5009384;28;20030;-84
2023/04/05 11:53:16;;;;;;;0.55;0.55;;;;;;;15.60;30.97;102306.75;5028662;28;20089;-84